Terminal Aerodrome Forecast
Issued by NWS

Home | Current Version | Previous Version | Text Only | Print | Product List | Glossary On
Versions: 1 2 3 4 5 6 7 8 9 10 11 12 13
000
FTUS42 KFFC 280222 AAA
TAFFTY
TAF AMD
KFTY 280222Z 2802/2824 16003KT P6SM -SHRA BKN025 OVC100
     FM280500 14003KT 6SM SHRA BR SCT015 OVC030
     FM280800 13004KT 3SM SHRA BR SCT007 OVC015
     FM281000 15005KT 3SM SHRA BR OVC005
     FM281300 21007KT 2SM -SHRA BR OVC004
     FM282200 27004KT 6SM BR VCSH OVC015=

USA.gov is the U.S. government's official web portal to all federal, state and local government web resources and services.